createdAt,value
2018-01-27T00:00:03.567Z,1022.66
2018-01-27T00:01:03.552Z,1022.65
2018-01-27T00:02:03.544Z,1022.69
2018-01-27T00:03:03.539Z,1022.72
2018-01-27T00:04:03.528Z,1022.71
2018-01-27T00:05:03.522Z,1022.71
2018-01-27T00:06:03.568Z,1022.73
2018-01-27T00:07:03.509Z,1022.71
2018-01-27T00:08:03.554Z,1022.67
2018-01-27T00:09:03.495Z,1022.66
2018-01-27T00:10:03.491Z,1022.74
2018-01-27T00:11:03.475Z,1022.71
2018-01-27T00:12:03.470Z,1022.71
2018-01-27T00:13:03.462Z,1022.64
2018-01-27T00:14:03.453Z,1022.69
2018-01-27T00:15:03.450Z,1022.73
2018-01-27T00:16:03.442Z,1022.69
2018-01-27T00:17:03.436Z,1022.66
2018-01-27T00:18:03.428Z,1022.70
2018-01-27T00:19:03.421Z,1022.70
2018-01-27T00:20:03.416Z,1022.71
2018-01-27T00:21:03.405Z,1022.75
2018-01-27T00:22:03.396Z,1022.78
2018-01-27T00:23:03.388Z,1022.76
2018-01-27T00:24:03.382Z,1022.80
2018-01-27T00:25:03.369Z,1022.78
2018-01-27T00:26:03.361Z,1022.83
2018-01-27T00:27:03.354Z,1022.76
2018-01-27T00:28:03.353Z,1022.72
2018-01-27T00:29:03.341Z,1022.73
2018-01-27T00:30:03.333Z,1022.78
2018-01-27T00:31:03.331Z,1022.79
2018-01-27T00:32:03.321Z,1022.78
2018-01-27T00:33:03.320Z,1022.78
2018-01-27T00:34:03.310Z,1022.70
2018-01-27T00:35:03.300Z,1022.75
2018-01-27T00:36:03.295Z,1022.76
2018-01-27T00:37:03.286Z,1022.77
2018-01-27T00:38:03.282Z,1022.78
2018-01-27T00:39:03.266Z,1022.71
2018-01-27T00:40:03.260Z,1022.73
2018-01-27T00:41:03.256Z,1022.75
2018-01-27T00:42:03.249Z,1022.74
2018-01-27T00:43:03.239Z,1022.73
2018-01-27T00:44:03.230Z,1022.73
2018-01-27T00:45:03.221Z,1022.77
2018-01-27T00:46:03.214Z,1022.76
2018-01-27T00:47:03.210Z,1022.71
2018-01-27T00:48:03.205Z,1022.77
2018-01-27T00:49:03.197Z,1022.78
2018-01-27T00:50:03.188Z,1022.80
2018-01-27T00:51:03.181Z,1022.82
2018-01-27T00:52:03.177Z,1022.75
2018-01-27T00:53:03.168Z,1022.77
2018-01-27T00:54:03.160Z,1022.76
2018-01-27T00:55:03.149Z,1022.74
2018-01-27T00:56:03.145Z,1022.75
2018-01-27T00:57:03.137Z,1022.72
2018-01-27T00:58:03.238Z,1022.71
2018-01-27T00:59:03.121Z,1022.76
2018-01-27T01:00:03.114Z,1022.79
2018-01-27T01:01:03.104Z,1022.73
2018-01-27T01:02:03.096Z,1022.72
2018-01-27T01:03:03.092Z,1022.69
2018-01-27T01:04:03.087Z,1022.71
2018-01-27T01:05:03.078Z,1022.76
2018-01-27T01:06:03.072Z,1022.71
2018-01-27T01:07:03.065Z,1022.73
2018-01-27T01:08:03.054Z,1022.76
2018-01-27T01:09:03.047Z,1022.78
2018-01-27T01:10:03.038Z,1022.78
2018-01-27T01:11:03.028Z,1022.77
2018-01-27T01:12:03.022Z,1022.84
2018-01-27T01:13:03.013Z,1022.81
2018-01-27T01:14:03.009Z,1022.86
2018-01-27T01:15:02.998Z,1022.88
2018-01-27T01:16:02.994Z,1022.88
2018-01-27T01:17:02.982Z,1022.90
2018-01-27T01:18:02.974Z,1022.90
2018-01-27T01:19:02.971Z,1022.93
2018-01-27T01:20:02.962Z,1022.91
2018-01-27T01:21:02.956Z,1022.92
2018-01-27T01:22:02.950Z,1022.92
2018-01-27T01:23:02.942Z,1022.95
2018-01-27T01:24:02.932Z,1022.96
2018-01-27T01:25:02.923Z,1023.00
2018-01-27T01:26:02.914Z,1022.98
2018-01-27T01:27:02.902Z,1023.06
2018-01-27T01:28:02.895Z,1023.02
2018-01-27T01:29:02.890Z,1023.07
2018-01-27T01:30:02.883Z,1023.05
2018-01-27T01:31:02.873Z,1023.02
2018-01-27T01:32:02.864Z,1023.06
2018-01-27T01:33:02.860Z,1023.08
2018-01-27T01:34:02.848Z,1022.99
2018-01-27T01:35:02.845Z,1023.04
2018-01-27T01:36:02.838Z,1023.07
2018-01-27T01:37:02.831Z,1023.01
2018-01-27T01:38:02.825Z,1023.07
2018-01-27T01:39:02.812Z,1023.09
2018-01-27T01:40:02.806Z,1023.05
2018-01-27T01:41:02.796Z,1023.10
2018-01-27T01:42:02.797Z,1023.08
2018-01-27T01:43:02.782Z,1023.09
2018-01-27T01:44:02.771Z,1023.07
2018-01-27T01:45:02.763Z,1023.14
2018-01-27T01:46:02.754Z,1023.08
2018-01-27T01:47:02.749Z,1023.07
2018-01-27T01:48:02.740Z,1023.08
2018-01-27T01:49:02.734Z,1023.08
2018-01-27T01:50:02.725Z,1023.07
2018-01-27T01:51:02.722Z,1023.11
2018-01-27T01:52:02.714Z,1023.10
2018-01-27T01:53:02.712Z,1023.10
2018-01-27T01:54:02.697Z,1023.07
2018-01-27T01:55:02.691Z,1023.09
2018-01-27T01:56:02.682Z,1023.05
2018-01-27T01:57:02.676Z,1023.10
2018-01-27T01:58:02.667Z,1023.11
2018-01-27T01:59:02.656Z,1023.13
2018-01-27T02:00:02.651Z,1023.13
2018-01-27T02:01:02.642Z,1023.12
2018-01-27T02:02:02.634Z,1023.16
2018-01-27T02:03:02.627Z,1023.10
2018-01-27T02:04:02.620Z,1023.13
2018-01-27T02:05:02.610Z,1023.08
2018-01-27T02:06:02.600Z,1023.07
2018-01-27T02:07:02.598Z,1023.14
2018-01-27T02:08:02.590Z,1023.11
2018-01-27T02:09:02.585Z,1023.17
2018-01-27T02:10:02.577Z,1023.09
2018-01-27T02:11:02.568Z,1023.12
2018-01-27T02:12:02.560Z,1023.11
2018-01-27T02:13:02.552Z,1023.15
2018-01-27T02:14:02.543Z,1023.15
2018-01-27T02:15:02.533Z,1023.12
2018-01-27T02:16:02.526Z,1023.17
2018-01-27T02:17:02.522Z,1023.17
2018-01-27T02:18:02.511Z,1023.23
2018-01-27T02:19:02.508Z,1023.26
2018-01-27T02:20:02.498Z,1023.25
2018-01-27T02:21:02.491Z,1023.23
2018-01-27T02:22:02.481Z,1023.30
2018-01-27T02:23:02.470Z,1023.29
2018-01-27T02:24:02.462Z,1023.26
2018-01-27T02:25:02.457Z,1023.24
2018-01-27T02:26:02.453Z,1023.19
2018-01-27T02:27:02.441Z,1023.19
2018-01-27T02:28:02.432Z,1023.23
2018-01-27T02:29:02.426Z,1023.16
2018-01-27T02:30:02.417Z,1023.15
2018-01-27T02:31:02.415Z,1023.16
2018-01-27T02:32:02.410Z,1023.15
2018-01-27T02:33:02.401Z,1023.21
2018-01-27T02:34:02.392Z,1023.19
2018-01-27T02:35:02.385Z,1023.22
2018-01-27T02:36:02.378Z,1023.22
2018-01-27T02:37:02.371Z,1023.24
2018-01-27T02:38:02.363Z,1023.27
2018-01-27T02:39:02.350Z,1023.23
2018-01-27T02:40:02.342Z,1023.24
2018-01-27T02:41:02.339Z,1023.25
2018-01-27T02:42:02.326Z,1023.28
2018-01-27T02:43:02.323Z,1023.26
2018-01-27T02:44:02.314Z,1023.25
2018-01-27T02:45:02.306Z,1023.20
2018-01-27T02:46:02.297Z,1023.26
2018-01-27T02:47:02.296Z,1023.30
2018-01-27T02:48:02.288Z,1023.36
2018-01-27T02:49:02.280Z,1023.34
2018-01-27T02:50:02.271Z,1023.39
2018-01-27T02:51:02.264Z,1023.40
2018-01-27T02:52:02.256Z,1023.39
2018-01-27T02:53:02.261Z,1023.34
2018-01-27T02:54:02.241Z,1023.31
2018-01-27T02:55:02.232Z,1023.36
2018-01-27T02:56:02.224Z,1023.34
2018-01-27T02:57:02.219Z,1023.34
2018-01-27T02:58:02.207Z,1023.45
2018-01-27T02:59:02.199Z,1023.41
2018-01-27T03:00:02.257Z,1023.41
2018-01-27T03:01:02.184Z,1023.44
2018-01-27T03:02:02.177Z,1023.43
2018-01-27T03:03:02.174Z,1023.46
2018-01-27T03:04:02.167Z,1023.43
2018-01-27T03:05:02.158Z,1023.50
2018-01-27T03:06:02.150Z,1023.47
2018-01-27T03:07:02.144Z,1023.50
2018-01-27T03:08:02.138Z,1023.49
2018-01-27T03:09:02.129Z,1023.44
2018-01-27T03:10:02.120Z,1023.48
2018-01-27T03:11:02.112Z,1023.50
2018-01-27T03:12:02.103Z,1023.47
2018-01-27T03:13:02.096Z,1023.51
2018-01-27T03:14:02.087Z,1023.50
2018-01-27T03:15:02.081Z,1023.53
2018-01-27T03:16:02.073Z,1023.50
2018-01-27T03:17:02.068Z,1023.52
2018-01-27T03:18:02.058Z,1023.55
2018-01-27T03:19:02.055Z,1023.52
2018-01-27T03:20:02.048Z,1023.52
2018-01-27T03:21:02.041Z,1023.54
2018-01-27T03:22:02.034Z,1023.55
2018-01-27T03:23:02.027Z,1023.58
2018-01-27T03:24:02.013Z,1023.58
2018-01-27T03:25:02.006Z,1023.52
2018-01-27T03:26:01.999Z,1023.55
2018-01-27T03:27:01.994Z,1023.58
2018-01-27T03:28:01.988Z,1023.57
2018-01-27T03:29:01.980Z,1023.60
2018-01-27T03:30:01.975Z,1023.62
2018-01-27T03:31:01.967Z,1023.61
2018-01-27T03:32:01.959Z,1023.59
2018-01-27T03:33:01.955Z,1023.63
2018-01-27T03:34:01.943Z,1023.71
2018-01-27T03:35:01.932Z,1023.70
2018-01-27T03:36:01.926Z,1023.73
2018-01-27T03:37:01.920Z,1023.71
2018-01-27T03:38:01.912Z,1023.72
2018-01-27T03:39:01.902Z,1023.77
2018-01-27T03:40:01.896Z,1023.77
2018-01-27T03:41:01.889Z,1023.86
2018-01-27T03:42:01.879Z,1023.86
2018-01-27T03:43:01.875Z,1023.85
2018-01-27T03:44:01.868Z,1023.85
2018-01-27T03:45:01.864Z,1023.89
2018-01-27T03:46:01.855Z,1023.90
2018-01-27T03:47:01.847Z,1023.94
2018-01-27T03:48:01.839Z,1023.95
2018-01-27T03:49:01.830Z,1024.01
2018-01-27T03:50:01.824Z,1024.00
2018-01-27T03:51:01.810Z,1023.99
2018-01-27T03:52:01.803Z,1024.03
2018-01-27T03:53:01.800Z,1023.99
2018-01-27T03:54:01.788Z,1024.00
2018-01-27T03:55:01.780Z,1023.95
2018-01-27T03:56:01.771Z,1023.99
2018-01-27T03:57:01.765Z,1023.97
2018-01-27T03:58:01.757Z,1023.95
2018-01-27T03:59:01.756Z,1023.95
2018-01-27T04:00:01.746Z,1024.00
2018-01-27T04:01:01.739Z,1023.99
2018-01-27T04:02:01.730Z,1024.11
2018-01-27T04:03:01.723Z,1024.09
2018-01-27T04:04:01.766Z,1024.06
2018-01-27T04:05:01.709Z,1024.19
2018-01-27T04:06:01.700Z,1024.20
2018-01-27T04:07:01.718Z,1024.17
2018-01-27T04:08:01.681Z,1024.18
2018-01-27T04:09:01.674Z,1024.19
2018-01-27T04:10:01.665Z,1024.25
2018-01-27T04:11:01.656Z,1024.20
2018-01-27T04:12:01.649Z,1024.14
2018-01-27T04:13:01.641Z,1024.13
2018-01-27T04:14:01.633Z,1024.13
2018-01-27T04:15:01.630Z,1024.19
2018-01-27T04:16:01.629Z,1024.22
2018-01-27T04:17:01.615Z,1024.17
2018-01-27T04:18:01.606Z,1024.17
2018-01-27T04:19:01.599Z,1024.12
2018-01-27T04:20:01.590Z,1024.17
2018-01-27T04:21:01.582Z,1024.12
2018-01-27T04:22:01.573Z,1024.21
2018-01-27T04:23:01.561Z,1024.25
2018-01-27T04:24:01.554Z,1024.31
2018-01-27T04:25:01.546Z,1024.32
2018-01-27T04:26:01.536Z,1024.37
2018-01-27T04:27:01.533Z,1024.37
2018-01-27T04:28:01.524Z,1024.39
2018-01-27T04:29:01.517Z,1024.44
2018-01-27T04:30:01.507Z,1024.40
2018-01-27T04:31:01.496Z,1024.40
2018-01-27T04:32:01.487Z,1024.42
2018-01-27T04:33:01.480Z,1024.40
2018-01-27T04:34:01.469Z,1024.42
2018-01-27T04:35:01.463Z,1024.46
2018-01-27T04:36:01.453Z,1024.55
2018-01-27T04:37:01.445Z,1024.54
2018-01-27T04:38:01.436Z,1024.50
2018-01-27T04:39:01.433Z,1024.54
2018-01-27T04:40:01.425Z,1024.61
2018-01-27T04:41:01.418Z,1024.58
2018-01-27T04:42:01.409Z,1024.59
2018-01-27T04:43:01.399Z,1024.63
2018-01-27T04:44:01.392Z,1024.68
2018-01-27T04:45:01.384Z,1024.64
2018-01-27T04:46:01.375Z,1024.76
2018-01-27T04:47:01.362Z,1024.70
2018-01-27T04:48:01.354Z,1024.76
2018-01-27T04:49:01.346Z,1024.71
2018-01-27T04:50:01.338Z,1024.81
2018-01-27T04:51:01.332Z,1024.74
2018-01-27T04:52:01.321Z,1024.78
2018-01-27T04:53:01.313Z,1024.74
2018-01-27T04:54:01.305Z,1024.79
2018-01-27T04:55:01.300Z,1024.82
2018-01-27T04:56:01.293Z,1024.76
2018-01-27T04:57:01.290Z,1024.83
2018-01-27T04:58:01.276Z,1024.80
2018-01-27T04:59:01.268Z,1024.80
2018-01-27T05:00:01.260Z,1024.82
2018-01-27T05:01:01.252Z,1024.86
2018-01-27T05:02:01.242Z,1024.84
2018-01-27T05:03:01.232Z,1024.85
2018-01-27T05:04:01.221Z,1024.81
2018-01-27T05:05:01.213Z,1024.84
2018-01-27T05:06:01.206Z,1024.85
2018-01-27T05:07:01.195Z,1024.79
2018-01-27T05:08:01.188Z,1024.85
2018-01-27T05:09:01.181Z,1024.88
2018-01-27T05:10:01.171Z,1024.93
2018-01-27T05:11:01.167Z,1024.96
2018-01-27T05:12:01.159Z,1024.99
2018-01-27T05:13:01.150Z,1025.04
2018-01-27T05:14:01.141Z,1025.11
2018-01-27T05:15:01.131Z,1025.14
2018-01-27T05:16:01.123Z,1025.13
2018-01-27T05:17:01.116Z,1025.12
2018-01-27T05:18:01.105Z,1025.20
2018-01-27T05:19:01.093Z,1025.20
2018-01-27T05:20:01.084Z,1025.19
2018-01-27T05:21:01.075Z,1025.16
2018-01-27T05:22:01.066Z,1025.20
2018-01-27T05:23:01.057Z,1025.18
2018-01-27T05:24:01.050Z,1025.19
2018-01-27T05:25:01.041Z,1025.24
2018-01-27T05:26:01.030Z,1025.26
2018-01-27T05:27:01.026Z,1025.28
2018-01-27T05:28:01.025Z,1025.29
2018-01-27T05:29:01.008Z,1025.27
2018-01-27T05:30:00.998Z,1025.29
2018-01-27T05:31:00.990Z,1025.29
2018-01-27T05:32:00.982Z,1025.28
2018-01-27T05:33:00.972Z,1025.32
2018-01-27T05:34:00.964Z,1025.36
2018-01-27T05:35:00.950Z,1025.34
2018-01-27T05:36:00.941Z,1025.24
2018-01-27T05:37:00.932Z,1025.36
2018-01-27T05:38:00.922Z,1025.36
2018-01-27T05:39:00.916Z,1025.38
2018-01-27T05:40:00.907Z,1025.41
2018-01-27T05:41:00.897Z,1025.40
2018-01-27T05:42:00.887Z,1025.40
2018-01-27T05:43:00.884Z,1025.46
2018-01-27T05:44:00.874Z,1025.42
2018-01-27T05:45:00.866Z,1025.43
2018-01-27T05:46:00.857Z,1025.40
2018-01-27T05:47:00.848Z,1025.43
2018-01-27T05:48:00.841Z,1025.47
2018-01-27T05:49:00.832Z,1025.45
2018-01-27T05:50:00.821Z,1025.51
2018-01-27T05:51:00.809Z,1025.53
2018-01-27T05:52:00.801Z,1025.55
2018-01-27T05:53:00.792Z,1025.54
2018-01-27T05:54:00.782Z,1025.55
2018-01-27T05:55:00.775Z,1025.54
2018-01-27T05:56:00.774Z,1025.54
2018-01-27T05:57:00.757Z,1025.55
2018-01-27T05:58:00.749Z,1025.53
2018-01-27T05:59:00.744Z,1025.55
2018-01-27T06:00:00.736Z,1025.55
2018-01-27T06:01:00.726Z,1025.56
2018-01-27T06:02:00.717Z,1025.59
2018-01-27T06:03:00.709Z,1025.60
2018-01-27T06:04:00.700Z,1025.61
2018-01-27T06:05:00.694Z,1025.66
2018-01-27T06:06:00.687Z,1025.60
2018-01-27T06:07:00.671Z,1025.55
2018-01-27T06:08:00.664Z,1025.61
2018-01-27T06:09:00.656Z,1025.55
2018-01-27T06:10:00.647Z,1025.48
2018-01-27T06:11:00.638Z,1025.46
2018-01-27T06:12:00.629Z,1025.54
2018-01-27T06:13:00.620Z,1025.52
2018-01-27T06:14:00.610Z,1025.51
2018-01-27T06:15:00.606Z,1025.52
2018-01-27T06:16:00.599Z,1025.52
2018-01-27T06:17:00.589Z,1025.57
2018-01-27T06:18:00.581Z,1025.54
2018-01-27T06:19:00.573Z,1025.62
2018-01-27T06:20:00.565Z,1025.60
2018-01-27T06:21:00.556Z,1025.67
2018-01-27T06:22:00.546Z,1025.78
2018-01-27T06:23:00.535Z,1025.81
2018-01-27T06:24:00.526Z,1025.75
2018-01-27T06:25:00.516Z,1025.80
2018-01-27T06:26:00.507Z,1025.83
2018-01-27T06:27:00.499Z,1025.78
2018-01-27T06:28:00.489Z,1025.88
2018-01-27T06:29:00.482Z,1025.84
2018-01-27T06:30:00.473Z,1025.88
2018-01-27T06:31:00.473Z,1025.88
2018-01-27T06:32:00.458Z,1025.90
2018-01-27T06:33:00.449Z,1025.82
2018-01-27T06:34:00.441Z,1025.91
2018-01-27T06:35:00.426Z,1025.90
2018-01-27T06:36:00.417Z,1025.91
2018-01-27T06:37:00.408Z,1025.96
2018-01-27T06:38:00.401Z,1025.94
2018-01-27T06:39:00.395Z,1026.01
2018-01-27T06:40:00.387Z,1026.06
2018-01-27T06:41:00.377Z,1026.06
2018-01-27T06:42:00.368Z,1026.03
2018-01-27T06:43:00.359Z,1026.07
2018-01-27T06:44:00.350Z,1026.13
2018-01-27T06:45:00.340Z,1026.09
2018-01-27T06:46:00.330Z,1026.06
2018-01-27T06:47:00.318Z,1026.09
2018-01-27T06:48:00.307Z,1026.13
2018-01-27T06:49:00.299Z,1026.13
2018-01-27T06:50:00.290Z,1026.11
2018-01-27T06:51:00.280Z,1026.14
2018-01-27T06:52:00.273Z,1026.13
2018-01-27T06:53:00.261Z,1026.13
2018-01-27T06:54:00.251Z,1026.16
2018-01-27T06:55:00.248Z,1026.16
2018-01-27T06:56:00.239Z,1026.18
2018-01-27T06:57:00.232Z,1026.23
2018-01-27T06:58:00.219Z,1026.18
2018-01-27T06:59:00.211Z,1026.24
2018-01-27T07:00:00.201Z,1026.25
2018-01-27T07:01:00.193Z,1026.28
2018-01-27T07:02:00.181Z,1026.26
2018-01-27T07:03:00.169Z,1026.31
2018-01-27T07:04:00.160Z,1026.31
2018-01-27T07:05:00.152Z,1026.31
2018-01-27T07:06:00.142Z,1026.27
2018-01-27T07:07:00.134Z,1026.26
2018-01-27T07:08:00.125Z,1026.28
2018-01-27T07:09:00.116Z,1026.29
2018-01-27T07:10:00.105Z,1026.33
2018-01-27T07:11:00.101Z,1026.38
2018-01-27T07:12:00.093Z,1026.42
2018-01-27T07:13:00.084Z,1026.40
2018-01-27T07:14:00.074Z,1026.39
2018-01-27T07:15:00.068Z,1026.40
2018-01-27T07:16:00.068Z,1026.41
2018-01-27T07:17:00.051Z,1026.40
2018-01-27T07:18:00.040Z,1026.44
2018-01-27T07:19:00.027Z,1026.39
2018-01-27T07:20:00.021Z,1026.39
2018-01-27T07:21:00.028Z,1026.46
2018-01-27T07:22:00.005Z,1026.42
2018-01-27T07:22:59.992Z,1026.44
2018-01-27T07:23:59.982Z,1026.43
2018-01-27T07:24:59.978Z,1026.49
2018-01-27T07:25:59.965Z,1026.47
2018-01-27T07:26:59.960Z,1026.50
2018-01-27T07:27:59.953Z,1026.45
2018-01-27T07:28:59.944Z,1026.52
2018-01-27T07:29:59.938Z,1026.54
2018-01-27T07:30:59.927Z,1026.52
2018-01-27T07:31:59.918Z,1026.49
2018-01-27T07:32:59.909Z,1026.53
2018-01-27T07:33:59.901Z,1026.53
2018-01-27T07:34:59.889Z,1026.54
2018-01-27T07:35:59.879Z,1026.53
2018-01-27T07:36:59.873Z,1026.55
2018-01-27T07:37:59.861Z,1026.57
2018-01-27T07:38:59.859Z,1026.55
2018-01-27T07:39:59.850Z,1026.63
2018-01-27T07:40:59.841Z,1026.60
2018-01-27T07:41:59.832Z,1026.60
2018-01-27T07:42:59.820Z,1026.65
2018-01-27T07:43:59.811Z,1026.61
2018-01-27T07:44:59.803Z,1026.67
2018-01-27T07:45:59.832Z,1026.67
2018-01-27T07:46:59.788Z,1026.68
2018-01-27T07:47:59.778Z,1026.71
2018-01-27T07:48:59.769Z,1026.76
2018-01-27T07:49:59.762Z,1026.77
2018-01-27T07:50:59.757Z,1026.81
2018-01-27T07:51:59.749Z,1026.83
2018-01-27T07:52:59.741Z,1026.83
2018-01-27T07:53:59.733Z,1026.80
2018-01-27T07:54:59.726Z,1026.78
2018-01-27T07:55:59.716Z,1026.76
2018-01-27T07:56:59.708Z,1026.74
2018-01-27T07:57:59.700Z,1026.76
2018-01-27T07:58:59.689Z,1026.76
2018-01-27T07:59:59.680Z,1026.76
2018-01-27T08:00:59.671Z,1026.76
2018-01-27T08:01:59.662Z,1026.78
2018-01-27T08:02:59.654Z,1026.80
2018-01-27T08:03:59.647Z,1026.82
2018-01-27T08:04:59.640Z,1026.85
2018-01-27T08:05:59.630Z,1026.83
2018-01-27T08:06:59.627Z,1026.83
2018-01-27T08:07:59.618Z,1026.89
2018-01-27T08:08:59.612Z,1026.85
2018-01-27T08:09:59.605Z,1026.85
2018-01-27T08:10:59.595Z,1026.91
2018-01-27T08:11:59.588Z,1026.92
2018-01-27T08:12:59.579Z,1026.90
2018-01-27T08:13:59.571Z,1026.97
2018-01-27T08:14:59.560Z,1026.96
2018-01-27T08:15:59.552Z,1027.01
2018-01-27T08:16:59.545Z,1026.96
2018-01-27T08:17:59.536Z,1026.95
2018-01-27T08:18:59.528Z,1026.98
2018-01-27T08:19:59.526Z,1027.07
2018-01-27T08:20:59.512Z,1027.03
2018-01-27T08:21:59.505Z,1026.98
2018-01-27T08:22:59.503Z,1026.95
2018-01-27T08:23:59.494Z,1027.06
2018-01-27T08:24:59.486Z,1026.96
2018-01-27T08:25:59.477Z,1027.01
2018-01-27T08:26:59.470Z,1026.94
2018-01-27T08:27:59.462Z,1026.97
2018-01-27T08:28:59.456Z,1026.99
2018-01-27T08:29:59.447Z,1026.98
2018-01-27T08:30:59.435Z,1026.95
2018-01-27T08:31:59.428Z,1026.94
2018-01-27T08:32:59.420Z,1026.98
2018-01-27T08:33:59.412Z,1026.92
2018-01-27T08:34:59.416Z,1026.88
2018-01-27T08:35:59.397Z,1026.86
2018-01-27T08:36:59.395Z,1026.83
2018-01-27T08:37:59.380Z,1026.84
2018-01-27T08:38:59.378Z,1026.81
2018-01-27T08:39:59.369Z,1026.80
2018-01-27T08:40:59.362Z,1026.84
2018-01-27T08:41:59.352Z,1026.80
2018-01-27T08:42:59.343Z,1026.85
2018-01-27T08:43:59.334Z,1026.91
2018-01-27T08:44:59.327Z,1026.83
2018-01-27T08:45:59.317Z,1026.86
2018-01-27T08:46:59.316Z,1026.87
2018-01-27T08:47:59.308Z,1026.87
2018-01-27T08:48:59.301Z,1026.81
2018-01-27T08:49:59.294Z,1026.83
2018-01-27T08:50:59.286Z,1026.77
2018-01-27T08:51:59.280Z,1026.76
2018-01-27T08:52:59.321Z,1026.77
2018-01-27T08:53:59.266Z,1026.72
2018-01-27T08:54:59.254Z,1026.84
2018-01-27T08:55:59.249Z,1026.82
2018-01-27T08:56:59.242Z,1026.81
2018-01-27T08:57:59.236Z,1026.87
2018-01-27T08:58:59.230Z,1026.84
2018-01-27T08:59:59.224Z,1026.89
2018-01-27T09:00:59.218Z,1026.96
2018-01-27T09:01:59.212Z,1026.86
2018-01-27T09:02:59.209Z,1026.88
2018-01-27T09:03:59.203Z,1026.88
2018-01-27T09:04:59.198Z,1026.93
2018-01-27T09:05:59.192Z,1026.94
2018-01-27T09:06:59.185Z,1026.94
2018-01-27T09:07:59.180Z,1026.99
2018-01-27T09:08:59.172Z,1026.97
2018-01-27T09:09:59.166Z,1026.97
2018-01-27T09:10:59.155Z,1026.98
2018-01-27T09:11:59.151Z,1027.01
2018-01-27T09:12:59.145Z,1027.01
2018-01-27T09:13:59.178Z,1026.99
2018-01-27T09:14:59.131Z,1027.01
2018-01-27T09:15:59.126Z,1026.94
2018-01-27T09:16:59.120Z,1026.95
2018-01-27T09:17:59.112Z,1026.94
2018-01-27T09:18:59.114Z,1026.92
2018-01-27T09:19:59.105Z,1026.92
2018-01-27T09:20:59.098Z,1026.92
2018-01-27T09:21:59.091Z,1026.96
2018-01-27T09:22:59.086Z,1027.00
2018-01-27T09:23:59.081Z,1027.00
2018-01-27T09:24:59.074Z,1027.09
2018-01-27T09:25:59.067Z,1027.05
2018-01-27T09:26:59.055Z,1027.07
2018-01-27T09:27:59.050Z,1027.10
2018-01-27T09:28:59.043Z,1027.14
2018-01-27T09:29:59.036Z,1027.05
2018-01-27T09:30:59.031Z,1027.06
2018-01-27T09:31:59.023Z,1027.05
2018-01-27T09:32:59.017Z,1026.99
2018-01-27T09:33:59.009Z,1026.94
2018-01-27T09:34:59.009Z,1026.92
2018-01-27T09:35:59.002Z,1026.92
2018-01-27T09:36:58.996Z,1026.94
2018-01-27T09:37:58.988Z,1026.98
2018-01-27T09:38:58.983Z,1027.05
2018-01-27T09:39:58.976Z,1027.09
2018-01-27T09:40:58.968Z,1027.19
2018-01-27T09:41:58.961Z,1027.26
2018-01-27T09:42:58.951Z,1027.21
2018-01-27T09:43:58.944Z,1027.21
2018-01-27T09:44:58.939Z,1027.22
2018-01-27T09:45:58.931Z,1027.22
2018-01-27T09:46:58.929Z,1027.27
2018-01-27T09:47:58.922Z,1027.23
2018-01-27T09:48:58.916Z,1027.33
2018-01-27T09:49:58.909Z,1027.32
2018-01-27T09:50:58.900Z,1027.32
2018-01-27T09:51:58.892Z,1027.33
2018-01-27T09:52:58.885Z,1027.34
2018-01-27T09:53:58.877Z,1027.27
2018-01-27T09:54:58.872Z,1027.30
2018-01-27T09:55:58.865Z,1027.25
2018-01-27T09:56:58.859Z,1027.20
2018-01-27T09:57:58.851Z,1027.22
2018-01-27T09:58:58.850Z,1027.19
2018-01-27T09:59:58.844Z,1027.25
2018-01-27T10:00:58.838Z,1027.22
2018-01-27T10:01:58.830Z,1027.20
2018-01-27T10:02:58.826Z,1027.17
2018-01-27T10:03:58.819Z,1027.17
2018-01-27T10:04:58.819Z,1027.18
2018-01-27T10:05:58.808Z,1027.23
2018-01-27T10:06:58.797Z,1027.23
2018-01-27T10:07:58.793Z,1027.22
2018-01-27T10:08:58.787Z,1027.28
2018-01-27T10:09:58.779Z,1027.30
2018-01-27T10:10:58.775Z,1027.22
2018-01-27T10:11:58.769Z,1027.23
2018-01-27T10:12:58.764Z,1027.19
2018-01-27T10:13:58.759Z,1027.27
2018-01-27T10:14:58.758Z,1027.29
2018-01-27T10:15:58.754Z,1027.27
2018-01-27T10:16:58.747Z,1027.30
2018-01-27T10:17:58.742Z,1027.24
2018-01-27T10:18:58.740Z,1027.29
2018-01-27T10:19:58.735Z,1027.29
2018-01-27T10:20:58.732Z,1027.26
2018-01-27T10:21:58.728Z,1027.29
2018-01-27T10:22:58.722Z,1027.36
2018-01-27T10:23:58.718Z,1027.25
2018-01-27T10:24:58.717Z,1027.31
2018-01-27T10:25:58.714Z,1027.20
2018-01-27T10:26:58.712Z,1027.26
2018-01-27T10:27:58.711Z,1027.32
2018-01-27T10:28:58.712Z,1027.28
2018-01-27T10:29:58.708Z,1027.29
2018-01-27T10:30:58.711Z,1027.25
2018-01-27T10:31:58.711Z,1027.30
2018-01-27T10:32:58.711Z,1027.31
2018-01-27T10:33:58.709Z,1027.35
2018-01-27T10:34:58.710Z,1027.31
2018-01-27T10:35:58.711Z,1027.25
2018-01-27T10:36:58.712Z,1027.30
2018-01-27T10:37:58.711Z,1027.29
2018-01-27T10:38:58.707Z,1027.24
2018-01-27T10:39:58.709Z,1027.28
2018-01-27T10:40:58.712Z,1027.23
2018-01-27T10:41:58.712Z,1027.28
2018-01-27T10:42:58.714Z,1027.22
2018-01-27T10:43:58.715Z,1027.23
2018-01-27T10:44:58.717Z,1027.19
2018-01-27T10:45:58.718Z,1027.12
2018-01-27T10:46:58.725Z,1027.20
2018-01-27T10:47:58.726Z,1027.18
2018-01-27T10:48:58.729Z,1027.18
2018-01-27T10:49:58.730Z,1027.19
2018-01-27T10:50:58.727Z,1027.15
2018-01-27T10:51:58.729Z,1027.15
2018-01-27T10:52:58.731Z,1027.26
2018-01-27T10:53:58.733Z,1027.22
2018-01-27T10:54:58.739Z,1027.25
2018-01-27T10:55:58.740Z,1027.37
2018-01-27T10:56:58.742Z,1027.31
2018-01-27T10:57:58.741Z,1027.29
2018-01-27T10:58:58.744Z,1027.29
2018-01-27T10:59:58.746Z,1027.39
2018-01-27T11:00:58.747Z,1027.39
2018-01-27T11:01:58.747Z,1027.36
2018-01-27T11:02:58.744Z,1027.37
2018-01-27T11:03:58.745Z,1027.39
2018-01-27T11:04:58.746Z,1027.37
2018-01-27T11:05:58.746Z,1027.36
2018-01-27T11:06:58.748Z,1027.28
2018-01-27T11:07:58.751Z,1027.36
2018-01-27T11:08:58.752Z,1027.34
2018-01-27T11:09:58.752Z,1027.30
2018-01-27T11:10:58.760Z,1027.27
2018-01-27T11:11:58.762Z,1027.33
2018-01-27T11:12:58.761Z,1027.32
2018-01-27T11:13:58.762Z,1027.33
2018-01-27T11:14:58.763Z,1027.30
2018-01-27T11:15:58.766Z,1027.28
2018-01-27T11:16:58.766Z,1027.42
2018-01-27T11:17:58.765Z,1027.33
2018-01-27T11:18:58.762Z,1027.37
2018-01-27T11:19:58.763Z,1027.41
2018-01-27T11:20:58.765Z,1027.34
2018-01-27T11:21:58.763Z,1027.37
2018-01-27T11:22:58.763Z,1027.40
2018-01-27T11:23:58.764Z,1027.43
2018-01-27T11:24:58.763Z,1027.36
2018-01-27T11:25:58.763Z,1027.39
2018-01-27T11:26:58.769Z,1027.31
2018-01-27T11:27:58.768Z,1027.33
2018-01-27T11:28:58.768Z,1027.36
2018-01-27T11:29:58.768Z,1027.29
2018-01-27T11:30:58.769Z,1027.30
2018-01-27T11:31:58.768Z,1027.25
2018-01-27T11:32:58.768Z,1027.28
2018-01-27T11:33:58.766Z,1027.34
2018-01-27T11:34:58.762Z,1027.35
2018-01-27T11:35:58.765Z,1027.29
2018-01-27T11:36:58.761Z,1027.22
2018-01-27T11:37:58.760Z,1027.26
2018-01-27T11:38:58.758Z,1027.21
2018-01-27T11:39:58.759Z,1027.11
2018-01-27T11:40:58.759Z,1027.11
2018-01-27T11:41:58.756Z,1027.16
2018-01-27T11:42:58.760Z,1027.16
2018-01-27T11:43:58.759Z,1027.09
2018-01-27T11:44:58.758Z,1027.09
2018-01-27T11:45:58.756Z,1027.05
2018-01-27T11:46:58.755Z,1027.02
2018-01-27T11:47:58.752Z,1027.09
2018-01-27T11:48:58.752Z,1027.06
2018-01-27T11:49:58.749Z,1027.04
2018-01-27T11:50:58.743Z,1027.04
2018-01-27T11:51:58.742Z,1026.99
2018-01-27T11:52:58.740Z,1026.96
2018-01-27T11:53:58.742Z,1026.95
2018-01-27T11:54:58.788Z,1027.01
2018-01-27T11:55:58.738Z,1026.98
2018-01-27T11:56:58.736Z,1027.00
2018-01-27T11:57:58.733Z,1026.95
2018-01-27T11:58:58.727Z,1026.97
2018-01-27T11:59:58.725Z,1027.05
2018-01-27T12:00:58.722Z,1026.96
2018-01-27T12:01:58.719Z,1027.00
2018-01-27T12:02:58.715Z,1026.93
2018-01-27T12:03:58.715Z,1027.00
2018-01-27T12:04:58.716Z,1027.04